Time;durP1;ratioP1;P1;durP2;ratioP2;P2;SDS_P1;SDS_P2;PMS_P1;PMS_P2;Temp;Humidity;BMP_temperature;BMP_pressure;BME280_temperature;BME280_humidity;BME280_pressure;Samples;Min_cycle;Max_cycle;Signal;HPM_P1;HPM_P2
2022/12/03 00:01:17;;;;;;;20.50;9.53;;;;;;;1.27;79.34;102263.09;5069231;28;20530;-76
2022/12/03 00:03:42;;;;;;;19.70;8.73;;;;;;;1.26;79.55;102253.66;5077591;28;20028;-77
2022/12/03 00:06:07;;;;;;;22.13;9.70;;;;;;;1.29;79.37;102253.75;5068315;28;20104;-77
2022/12/03 00:08:33;;;;;;;20.03;9.20;;;;;;;1.29;79.14;102253.75;5095821;28;20356;-77
2022/12/03 00:10:58;;;;;;;20.73;9.23;;;;;;;1.29;78.92;102253.75;5095025;28;20036;-77
2022/12/03 00:13:23;;;;;;;19.37;9.47;;;;;;;1.30;78.98;102245.25;5075216;28;20024;-77
2022/12/03 00:15:48;;;;;;;21.77;9.53;;;;;;;1.29;79.42;102248.63;5060603;28;20016;-77
2022/12/03 00:18:14;;;;;;;20.60;9.57;;;;;;;1.28;79.20;102251.16;5075881;28;20101;-77
2022/12/03 00:20:39;;;;;;;21.07;9.43;;;;;;;1.25;79.28;102249.34;5076393;28;20033;-77
2022/12/03 00:23:04;;;;;;;19.27;8.67;;;;;;;1.28;79.42;102246.03;5076086;28;20036;-77
2022/12/03 00:25:30;;;;;;;20.63;9.00;;;;;;;1.26;79.18;102245.97;5078788;28;20467;-77
2022/12/03 00:27:55;;;;;;;20.47;8.80;;;;;;;1.27;79.38;102239.16;5075708;28;20036;-77
2022/12/03 00:30:20;;;;;;;17.23;8.10;;;;;;;1.29;79.36;102238.38;5075669;28;20012;-77
2022/12/03 00:32:45;;;;;;;20.97;9.97;;;;;;;1.29;79.43;102238.38;5075474;28;20390;-77
2022/12/03 00:35:11;;;;;;;20.50;9.23;;;;;;;1.29;79.25;102237.50;5071427;28;20031;-77
2022/12/03 00:37:36;;;;;;;21.77;9.77;;;;;;;1.30;79.56;102240.13;5075548;28;20490;-77
2022/12/03 00:40:05;;;;;;;21.23;9.33;;;;;;;1.29;79.58;102235.81;5075209;28;20024;-77
2022/12/03 00:42:30;;;;;;;21.80;9.97;;;;;;;1.28;79.47;102226.38;5074215;28;20012;-77
2022/12/03 00:44:56;;;;;;;21.50;9.23;;;;;;;1.27;79.46;102229.75;5073420;28;20016;-76
2022/12/03 00:47:21;;;;;;;22.03;9.80;;;;;;;1.29;79.54;102233.25;5074401;28;20021;-77
2022/12/03 00:49:46;;;;;;;18.77;8.63;;;;;;;1.30;79.72;102237.56;5080944;28;20027;-77
2022/12/03 00:52:12;;;;;;;19.43;8.70;;;;;;;1.32;79.59;102233.38;5088139;28;20024;-77
2022/12/03 00:54:37;;;;;;;21.40;9.20;;;;;;;1.32;79.92;102230.81;5070532;28;20024;-77
2022/12/03 00:57:02;;;;;;;22.83;9.97;;;;;;;1.33;79.40;102229.09;5080209;28;20398;-77
2022/12/03 00:59:27;;;;;;;22.43;10.47;;;;;;;1.34;79.44;102231.72;5074095;28;20056;-77
2022/12/03 01:01:53;;;;;;;21.70;9.87;;;;;;;1.33;79.02;102224.84;5061346;28;20536;-77
2022/12/03 01:04:18;;;;;;;21.47;9.43;;;;;;;1.33;79.53;102234.22;5073018;28;20024;-77
2022/12/03 01:06:43;;;;;;;21.57;10.30;;;;;;;1.34;79.07;102228.28;5075068;28;20028;-77
2022/12/03 01:09:09;;;;;;;24.40;11.13;;;;;;;1.32;79.57;102229.91;5083269;28;20024;-77
2022/12/03 01:11:36;;;;;;;20.53;9.13;;;;;;;1.33;79.50;102235.13;5074476;28;20553;-77
2022/12/03 01:14:06;;;;;;;22.90;10.03;;;;;;;1.35;79.59;102232.59;5073917;28;20077;-77
2022/12/03 01:16:31;;;;;;;23.57;9.60;;;;;;;1.35;79.74;102222.34;5082814;28;20074;-77
2022/12/03 01:18:57;;;;;;;21.93;10.07;;;;;;;1.36;79.57;102230.09;5087150;28;20044;-77
2022/12/03 01:21:22;;;;;;;22.20;9.83;;;;;;;1.38;79.60;102229.25;5074111;28;20047;-77
2022/12/03 01:23:47;;;;;;;20.93;10.20;;;;;;;1.39;79.53;102228.44;5074984;28;20028;-77
2022/12/03 01:26:13;;;;;;;22.63;10.40;;;;;;;1.36;79.45;102232.66;5068753;28;20032;-77
2022/12/03 01:28:40;;;;;;;21.77;9.80;;;;;;;1.38;79.51;102236.94;5075273;28;20468;-77
2022/12/03 01:33:49;;;;;;;22.70;10.57;;;;;;;1.39;79.40;102225.88;5074707;28;20512;-77
2022/12/03 01:36:15;;;;;;;20.63;9.97;;;;;;;1.38;79.52;102232.69;5071862;28;20048;-77
2022/12/03 01:38:40;;;;;;;25.13;11.07;;;;;;;1.38;79.10;102232.69;5074804;28;20034;-77
2022/12/03 01:41:05;;;;;;;21.57;10.17;;;;;;;1.35;79.73;102230.03;5074772;28;20029;-77
2022/12/03 01:43:30;;;;;;;23.47;10.27;;;;;;;1.38;79.31;102222.44;5074683;28;22119;-77
2022/12/03 01:45:56;;;;;;;26.23;10.63;;;;;;;1.35;79.31;102228.34;5089004;28;20115;-77
2022/12/03 01:48:21;;;;;;;25.40;10.97;;;;;;;1.33;79.38;102224.84;5094994;28;20110;-77
2022/12/03 01:50:46;;;;;;;22.57;9.93;;;;;;;1.34;79.31;102221.47;5094883;28;20028;-77
2022/12/03 01:53:17;;;;;;;22.13;10.03;;;;;;;1.33;79.66;102224.84;5083880;28;20028;-77
2022/12/03 01:55:43;;;;;;;23.83;10.90;;;;;;;1.34;79.50;102224.03;5070248;28;20017;-77
2022/12/03 01:58:12;;;;;;;20.90;9.47;;;;;;;1.35;79.26;102217.22;5067580;28;20024;-77
2022/12/03 02:00:39;;;;;;;22.70;10.00;;;;;;;1.35;79.20;102220.66;5070951;28;20028;-77
2022/12/03 02:03:14;;;;;;;25.43;11.17;;;;;;;1.35;79.48;102217.22;5083350;28;20024;-77
2022/12/03 02:05:39;;;;;;;23.03;10.17;;;;;;;1.34;79.63;102218.91;5079094;28;20034;-77
2022/12/03 02:08:28;;;;;;;24.30;10.27;;;;;;;1.34;79.72;102221.47;5073464;28;20387;-77
2022/12/03 02:10:53;;;;;;;24.30;10.70;;;;;;;1.34;79.48;102221.47;5074107;28;20439;-77
2022/12/03 02:13:19;;;;;;;23.93;9.70;;;;;;;1.35;79.88;102217.22;5084944;28;20099;-77
2022/12/03 02:15:44;;;;;;;26.10;10.60;;;;;;;1.36;79.99;102217.28;5074061;28;20099;-77
2022/12/03 02:18:10;;;;;;;20.17;9.70;;;;;;;1.39;79.81;102218.16;5073234;28;20094;-77
2022/12/03 02:20:57;;;;;;;21.93;9.70;;;;;;;1.38;79.71;102219.88;5073833;28;20021;-77
2022/12/03 02:23:39;;;;;;;23.00;9.93;;;;;;;1.40;79.80;102215.69;5071226;28;20592;-77
2022/12/03 02:26:04;;;;;;;22.83;9.25;;;;;;;1.40;79.90;102215.69;5070311;28;20048;-77
2022/12/03 02:28:30;;;;;;;22.37;9.53;;;;;;;1.41;80.08;102211.41;5072838;28;20063;-77
2022/12/03 02:30:55;;;;;;;23.10;9.93;;;;;;;1.44;79.86;102211.53;5073823;28;20050;-77
2022/12/03 02:33:20;;;;;;;22.70;10.03;;;;;;;1.42;79.69;102210.59;5073670;28;20050;-77
2022/12/03 02:35:46;;;;;;;23.67;10.33;;;;;;;1.43;79.68;102212.34;5072627;28;20373;-77
2022/12/03 02:38:18;;;;;;;21.60;9.47;;;;;;;1.42;80.05;102208.03;5081692;28;20032;-77
2022/12/03 02:40:46;;;;;;;22.93;10.33;;;;;;;1.43;79.95;102208.09;5076432;28;20123;-77
2022/12/03 02:43:13;;;;;;;22.77;10.70;;;;;;;1.43;79.78;102202.06;5071476;28;20037;-77
2022/12/03 02:45:46;;;;;;;23.87;10.70;;;;;;;1.45;79.78;102197.88;5073719;28;20031;-77
2022/12/03 02:48:17;;;;;;;25.03;10.93;;;;;;;1.44;79.81;102201.25;5073713;28;20086;-77
2022/12/03 02:50:49;;;;;;;22.95;10.05;;;;;;;1.45;79.82;102192.75;5076864;28;20035;-77
2022/12/03 02:53:20;;;;;;;22.63;9.70;;;;;;;1.44;79.86;102196.13;5073154;28;20028;-77
2022/12/03 02:55:47;;;;;;;22.23;10.37;;;;;;;1.45;80.19;102197.88;5065986;28;20025;-77
2022/12/03 02:58:13;;;;;;;24.50;10.90;;;;;;;1.45;79.70;102192.75;5081044;28;20270;-77
2022/12/03 03:00:40;;;;;;;24.23;10.80;;;;;;;1.45;80.17;102192.75;5074420;28;20032;-77
2022/12/03 03:03:07;;;;;;;22.63;9.90;;;;;;;1.47;79.88;102196.25;5060635;28;20037;-77
2022/12/03 03:05:35;;;;;;;23.60;10.90;;;;;;;1.47;79.73;102185.97;5052637;28;20057;-77
2022/12/03 03:08:00;;;;;;;21.57;10.00;;;;;;;1.45;79.96;102188.47;5061471;28;20028;-77
2022/12/03 03:10:27;;;;;;;22.37;10.40;;;;;;;1.45;80.31;102192.75;5073084;28;20028;-77
2022/12/03 03:12:54;;;;;;;21.87;10.33;;;;;;;1.43;79.91;102192.72;5071725;28;20040;-77
2022/12/03 03:15:22;;;;;;;22.83;10.10;;;;;;;1.46;79.90;102189.38;5073130;28;20035;-77
2022/12/03 03:17:47;;;;;;;24.80;10.80;;;;;;;1.45;79.81;102185.06;5077172;28;20467;-77
2022/12/03 03:20:13;;;;;;;23.73;10.90;;;;;;;1.45;79.83;102187.63;5062131;28;20135;-77
2022/12/03 03:22:41;;;;;;;24.37;11.03;;;;;;;1.46;80.01;102179.13;5072808;28;20059;-77
2022/12/03 03:25:11;;;;;;;25.30;11.60;;;;;;;1.44;79.71;102186.75;5071905;28;20028;-77
2022/12/03 03:27:37;;;;;;;25.43;11.37;;;;;;;1.44;79.92;102179.06;5086893;28;20031;-77
2022/12/03 03:30:03;;;;;;;24.90;11.10;;;;;;;1.43;79.78;102176.44;5064717;28;20021;-77
2022/12/03 03:32:29;;;;;;;24.90;11.23;;;;;;;1.44;79.80;102175.63;5082047;28;20036;-77
2022/12/03 03:34:56;;;;;;;24.60;11.90;;;;;;;1.44;79.50;102170.50;5077828;28;20123;-77
2022/12/03 03:37:22;;;;;;;23.27;10.90;;;;;;;1.42;79.73;102172.13;5071987;28;20028;-77
2022/12/03 03:39:48;;;;;;;24.00;10.47;;;;;;;1.44;79.64;102183.31;5073590;28;20070;-77
2022/12/03 03:42:13;;;;;;;26.17;11.67;;;;;;;1.43;79.60;102164.50;5079121;28;20056;-77
2022/12/03 03:44:39;;;;;;;24.57;11.37;;;;;;;1.41;79.96;102168.72;5071377;28;20317;-77
2022/12/03 03:47:05;;;;;;;25.73;11.27;;;;;;;1.43;80.01;102166.19;5072571;28;20590;-77
2022/12/03 03:49:30;;;;;;;26.03;11.33;;;;;;;1.43;80.07;102158.50;5069640;28;20391;-77
2022/12/03 03:51:55;;;;;;;25.20;11.57;;;;;;;1.41;79.95;102160.13;5072021;28;20020;-77
2022/12/03 03:54:22;;;;;;;25.50;11.17;;;;;;;1.40;79.77;102159.28;5081176;28;20040;-77
2022/12/03 03:56:47;;;;;;;24.37;11.03;;;;;;;1.40;79.92;102159.28;5072451;28;20226;-77
2022/12/03 03:59:13;;;;;;;23.80;10.80;;;;;;;1.39;79.63;102161.75;5070919;28;20148;-77
2022/12/03 04:01:38;;;;;;;22.00;10.60;;;;;;;1.40;80.01;102168.63;5072459;28;20036;-77
2022/12/03 04:04:09;;;;;;;24.87;11.10;;;;;;;1.39;80.33;102164.31;5073563;28;20430;-77
2022/12/03 04:06:34;;;;;;;25.58;11.52;;;;;;;1.42;80.25;102161.88;5092685;28;20024;-77
2022/12/03 04:09:00;;;;;;;23.70;10.57;;;;;;;1.41;80.09;102161.00;5081467;28;20074;-77
2022/12/03 04:14:09;;;;;;;25.13;11.17;;;;;;;1.41;79.96;102155.00;5056144;28;20036;-77
2022/12/03 04:16:34;;;;;;;26.20;11.63;;;;;;;1.41;79.89;102149.88;5083117;28;20021;-77
2022/12/03 04:18:59;;;;;;;22.57;10.97;;;;;;;1.40;80.05;102150.69;5066687;28;20047;-77
2022/12/03 04:24:09;;;;;;;22.90;10.10;;;;;;;1.40;80.07;102154.13;5088473;28;20556;-77
2022/12/03 04:29:19;;;;;;;22.87;11.07;;;;;;;1.39;80.44;102151.50;5064248;28;20052;-77
2022/12/03 04:37:12;;;;;;;26.93;11.27;;;;;;;1.38;79.90;102160.00;5072012;28;20140;-77
2022/12/03 04:39:38;;;;;;;24.67;11.03;;;;;;;1.37;80.02;102164.28;5053445;28;20104;-77
2022/12/03 04:42:05;;;;;;;24.67;11.57;;;;;;;1.36;79.94;102160.88;5076321;28;20044;-77
2022/12/03 04:44:35;;;;;;;26.67;11.30;;;;;;;1.38;80.12;102165.16;5075047;28;20036;-77
2022/12/03 04:47:00;;;;;;;24.47;10.67;;;;;;;1.39;80.36;102156.63;5075564;28;20024;-77
2022/12/03 04:49:26;;;;;;;23.33;10.57;;;;;;;1.40;80.06;102149.00;5074700;28;20036;-77
2022/12/03 04:51:51;;;;;;;26.10;11.90;;;;;;;1.42;80.27;102149.06;5074203;28;20028;-77
2022/12/03 04:54:16;;;;;;;29.00;12.77;;;;;;;1.39;80.06;102152.38;5082966;28;20032;-77
2022/12/03 04:56:42;;;;;;;23.53;11.53;;;;;;;1.39;80.50;102151.50;5077636;28;20391;-77
2022/12/03 04:59:07;;;;;;;25.30;11.90;;;;;;;1.38;80.29;102148.09;5089166;28;20043;-77
2022/12/03 05:01:32;;;;;;;24.27;11.43;;;;;;;1.38;80.32;102145.50;5093195;28;20037;-77
2022/12/03 05:03:57;;;;;;;26.50;13.10;;;;;;;1.38;80.11;102150.66;5093576;28;20144;-77
2022/12/03 05:06:23;;;;;;;26.17;12.00;;;;;;;1.38;80.49;102149.75;5075114;28;20027;-77
2022/12/03 05:08:48;;;;;;;30.07;12.90;;;;;;;1.35;79.76;102141.16;5073749;28;20449;-77
2022/12/03 05:11:13;;;;;;;26.53;12.13;;;;;;;1.34;80.64;102146.22;5074478;28;20125;-77
2022/12/03 05:13:38;;;;;;;25.27;11.70;;;;;;;1.32;80.45;102141.06;5082600;28;20032;-77
2022/12/03 05:16:04;;;;;;;30.10;11.50;;;;;;;1.31;80.42;102136.75;5073977;28;20046;-77
2022/12/03 05:18:29;;;;;;;27.80;12.80;;;;;;;1.33;80.23;102139.34;5073061;28;20049;-77
2022/12/03 05:20:55;;;;;;;30.10;13.10;;;;;;;1.30;80.79;102135.00;5076464;28;20033;-77
2022/12/03 05:23:20;;;;;;;31.83;12.63;;;;;;;1.31;80.72;102135.88;5086605;28;20036;-77
2022/12/03 05:25:45;;;;;;;32.80;13.57;;;;;;;1.30;80.80;102139.25;5072971;28;20032;-77
2022/12/03 05:28:10;;;;;;;32.80;13.13;;;;;;;1.31;80.52;102134.19;5077207;28;20032;-77
2022/12/03 05:30:36;;;;;;;30.97;13.63;;;;;;;1.29;80.60;102135.81;5071264;28;20070;-77
2022/12/03 05:33:01;;;;;;;30.13;13.37;;;;;;;1.29;80.92;102133.25;5075263;28;20032;-77
2022/12/03 05:35:27;;;;;;;28.13;12.63;;;;;;;1.27;80.67;102137.47;5073910;28;20468;-77
2022/12/03 05:37:52;;;;;;;27.33;12.33;;;;;;;1.26;80.77;102129.72;5058751;28;20029;-77
2022/12/03 05:40:18;;;;;;;26.90;11.13;;;;;;;1.29;80.64;102129.81;5078187;28;20024;-77
2022/12/03 05:42:52;;;;;;;26.77;11.63;;;;;;;1.26;80.83;102133.16;5086794;28;20727;-77
2022/12/03 05:45:24;;;;;;;28.40;11.57;;;;;;;1.31;80.69;102129.06;5079478;28;20059;-77
2022/12/03 05:47:50;;;;;;;30.60;13.02;;;;;;;1.24;81.19;102121.13;5072751;28;20377;-77
2022/12/03 05:50:16;;;;;;;27.93;11.97;;;;;;;1.25;80.81;102120.28;5075507;28;20027;-77
2022/12/03 05:52:41;;;;;;;29.60;12.07;;;;;;;1.27;81.21;102123.78;5081398;28;20040;-77
2022/12/03 05:55:07;;;;;;;25.83;12.03;;;;;;;1.28;81.54;102120.41;5074072;28;20119;-77
2022/12/03 05:57:33;;;;;;;27.90;12.33;;;;;;;1.25;80.86;102122.84;5075139;28;20016;-77
2022/12/03 05:59:58;;;;;;;27.40;11.83;;;;;;;1.24;81.16;102116.84;5083261;28;20455;-77
2022/12/03 06:02:23;;;;;;;29.73;12.43;;;;;;;1.25;81.25;102118.59;5067819;28;20054;-77
2022/12/03 06:04:49;;;;;;;29.90;12.47;;;;;;;1.24;80.96;102121.97;5070856;28;20431;-77
2022/12/03 06:07:14;;;;;;;30.80;13.07;;;;;;;1.23;81.57;102121.94;5071982;28;20028;-77
2022/12/03 06:09:39;;;;;;;27.17;12.27;;;;;;;1.24;81.41;102119.41;5090051;28;20021;-77
2022/12/03 06:12:05;;;;;;;32.93;12.80;;;;;;;1.25;81.25;102121.16;5073255;28;20483;-77
2022/12/03 06:14:33;;;;;;;27.40;12.10;;;;;;;1.25;81.42;102118.59;5070071;28;20027;-77
2022/12/03 06:16:58;;;;;;;24.13;10.97;;;;;;;1.27;81.24;102127.22;5071296;28;20419;-77
2022/12/03 06:19:24;;;;;;;27.87;12.87;;;;;;;1.28;81.44;102122.97;5082069;28;20197;-77
2022/12/03 06:21:49;;;;;;;28.70;12.37;;;;;;;1.28;81.42;102125.53;5079902;28;20416;-77
2022/12/03 06:24:14;;;;;;;29.30;12.20;;;;;;;1.28;81.62;102113.56;5071150;28;20032;-77
2022/12/03 06:26:39;;;;;;;28.87;12.07;;;;;;;1.29;81.23;102115.31;5072531;28;20035;-77
2022/12/03 06:29:05;;;;;;;30.27;11.40;;;;;;;1.27;81.41;102111.81;5072260;28;20039;-77
2022/12/03 06:31:30;;;;;;;28.03;12.23;;;;;;;1.24;81.42;102114.28;5073320;28;20032;-77
2022/12/03 06:33:55;;;;;;;28.13;11.93;;;;;;;1.24;80.82;102121.13;5071270;28;20476;-77
2022/12/03 06:36:21;;;;;;;28.07;11.70;;;;;;;1.23;81.29;102122.78;5086301;28;20023;-77
2022/12/03 06:38:46;;;;;;;24.57;10.70;;;;;;;1.23;81.41;102117.66;5082001;28;20032;-77
2022/12/03 06:41:11;;;;;;;30.30;13.03;;;;;;;1.25;81.38;102113.47;5068686;28;20028;-77
2022/12/03 06:43:36;;;;;;;29.10;12.30;;;;;;;1.25;80.98;102113.47;5079625;28;20057;-77
2022/12/03 06:46:02;;;;;;;27.50;12.20;;;;;;;1.23;81.59;102112.53;5071088;28;20060;-77
2022/12/03 06:48:27;;;;;;;28.13;12.37;;;;;;;1.21;81.08;102112.50;5072322;28;20074;-77
2022/12/03 06:50:52;;;;;;;27.37;12.43;;;;;;;1.22;81.14;102113.34;5071490;28;20108;-77
2022/12/03 06:53:17;;;;;;;27.80;12.33;;;;;;;1.24;81.11;102116.84;5081004;28;20584;-77
2022/12/03 06:55:43;;;;;;;24.33;11.10;;;;;;;1.23;81.26;102107.41;5073256;28;20024;-77
2022/12/03 06:58:08;;;;;;;27.93;11.87;;;;;;;1.24;81.21;102106.59;5071757;28;20104;-77
2022/12/03 07:00:33;;;;;;;24.87;11.57;;;;;;;1.24;81.18;102106.59;5069759;28;20071;-77
2022/12/03 07:02:58;;;;;;;25.17;10.60;;;;;;;1.24;81.07;102104.03;5070116;28;20026;-77
2022/12/03 07:05:24;;;;;;;28.83;12.17;;;;;;;1.23;80.91;102104.00;5072856;28;20042;-77
2022/12/03 07:07:50;;;;;;;26.93;10.70;;;;;;;1.21;81.03;102112.50;5072889;28;20028;-77
2022/12/03 07:10:17;;;;;;;27.37;11.73;;;;;;;1.21;80.93;102109.03;5072687;28;20098;-77
2022/12/03 07:12:42;;;;;;;25.60;10.70;;;;;;;1.21;81.08;102111.59;5066745;28;20072;-77
2022/12/03 07:15:08;;;;;;;22.83;10.63;;;;;;;1.23;nan;102109.97;5073069;28;20064;-77
2022/12/03 07:17:33;;;;;;;24.73;10.23;;;;;;;1.24;80.97;102114.28;5072229;28;20464;-77
2022/12/03 07:19:59;;;;;;;23.07;10.33;;;;;;;1.23;80.79;102109.97;5073992;28;20482;-77
2022/12/03 07:22:24;;;;;;;25.90;10.87;;;;;;;1.21;80.86;102114.16;5093270;28;20067;-77
2022/12/03 07:24:49;;;;;;;27.20;11.30;;;;;;;1.22;80.67;102110.78;5070255;28;20016;-77
2022/12/03 07:27:14;;;;;;;24.73;11.03;;;;;;;1.22;81.01;102110.78;5066242;28;20056;-77
2022/12/03 07:29:40;;;;;;;24.37;10.97;;;;;;;1.26;80.77;102109.22;5066630;28;20021;-77
2022/12/03 07:32:05;;;;;;;22.83;10.97;;;;;;;1.20;80.42;102105.63;5072988;28;20033;-77
2022/12/03 07:34:30;;;;;;;26.63;11.40;;;;;;;1.22;81.08;102108.22;5070677;28;20055;-77
2022/12/03 07:36:55;;;;;;;25.03;10.43;;;;;;;1.24;80.73;102110.88;5068644;28;20013;-77
2022/12/03 07:39:21;;;;;;;24.13;10.57;;;;;;;1.21;80.47;102114.16;5064219;28;20024;-77
2022/12/03 07:41:46;;;;;;;24.40;10.27;;;;;;;1.18;80.39;102108.97;5072191;28;20074;-77
2022/12/03 07:44:11;;;;;;;23.70;10.33;;;;;;;1.21;80.75;102104.81;5070469;28;20078;-77
2022/12/03 07:46:37;;;;;;;26.97;10.83;;;;;;;1.23;80.73;102109.13;5072525;28;20103;-77
2022/12/03 07:49:02;;;;;;;23.03;9.43;;;;;;;1.25;80.55;102108.34;5073754;28;20451;-77
2022/12/03 07:51:28;;;;;;;22.50;9.57;;;;;;;1.24;80.93;102106.59;5069581;28;20115;-77
2022/12/03 07:53:53;;;;;;;23.43;9.90;;;;;;;1.25;80.76;102105.78;5072811;28;20481;-77
2022/12/03 07:56:18;;;;;;;24.23;10.67;;;;;;;1.26;80.89;102111.78;5071350;28;20024;-77
2022/12/03 07:58:43;;;;;;;25.50;10.70;;;;;;;1.28;80.84;102110.16;5072291;28;20043;-77
2022/12/03 08:01:09;;;;;;;25.60;10.50;;;;;;;1.28;80.58;102111.00;5068091;28;20077;-77
2022/12/03 08:03:34;;;;;;;23.47;10.70;;;;;;;1.27;80.88;102116.09;5068128;28;20021;-77
2022/12/03 08:06:00;;;;;;;27.27;10.63;;;;;;;1.29;81.12;102115.31;5056675;28;20021;-77
2022/12/03 08:08:25;;;;;;;23.40;10.40;;;;;;;1.29;80.93;102120.44;5078073;28;20026;-77
2022/12/03 08:10:50;;;;;;;22.27;10.30;;;;;;;1.30;80.94;102126.44;5072166;28;20028;-77
2022/12/03 08:13:17;;;;;;;28.30;11.17;;;;;;;1.31;80.74;102123.03;5071980;28;20499;-77
2022/12/03 08:15:43;;;;;;;23.53;10.40;;;;;;;1.27;81.13;102124.66;5070637;28;20027;-77
2022/12/03 08:18:14;;;;;;;23.80;9.97;;;;;;;1.27;80.76;102122.09;5065091;28;20021;-77
2022/12/03 08:20:41;;;;;;;27.05;11.65;;;;;;;1.28;80.74;102125.53;5065681;28;20077;-77
2022/12/03 08:23:12;;;;;;;25.30;10.43;;;;;;;1.29;80.68;102122.13;5080625;28;20099;-77
2022/12/03 08:25:37;;;;;;;24.17;11.00;;;;;;;1.27;80.66;102126.34;5089424;28;20025;-77
2022/12/03 08:28:17;;;;;;;22.13;10.07;;;;;;;1.27;80.68;102122.09;5075950;28;20150;-77
2022/12/03 08:30:45;;;;;;;28.23;10.93;;;;;;;1.25;80.53;102125.44;5075097;28;20033;-77
2022/12/03 08:33:27;;;;;;;25.60;10.80;;;;;;;1.26;80.58;102127.16;5074865;28;20048;-77
2022/12/03 08:35:52;;;;;;;24.33;10.73;;;;;;;1.27;80.67;102132.34;5068171;28;20675;-77
2022/12/03 08:38:21;;;;;;;25.87;10.47;;;;;;;1.27;80.31;102127.22;5075143;28;20048;-77
2022/12/03 08:40:49;;;;;;;26.90;11.17;;;;;;;1.29;80.29;102127.25;5075647;28;20046;-77
2022/12/03 08:43:20;;;;;;;26.47;10.37;;;;;;;1.30;80.64;102124.75;5073349;28;20473;-77
2022/12/03 08:45:45;;;;;;;26.20;10.43;;;;;;;1.30;80.16;102129.00;5075133;28;20027;-77
2022/12/03 08:48:32;;;;;;;26.70;10.03;;;;;;;1.32;80.39;102124.78;5075078;28;20032;-77
2022/12/03 08:51:10;;;;;;;33.53;12.23;;;;;;;1.33;80.48;102124.84;5068271;28;20025;-77
2022/12/03 08:53:45;;;;;;;25.00;10.13;;;;;;;1.34;80.70;102123.16;5067812;28;20053;-77
2022/12/03 08:56:10;;;;;;;25.87;10.67;;;;;;;1.35;80.43;102125.78;5064098;28;20024;-77
2022/12/03 08:58:37;;;;;;;30.07;12.27;;;;;;;1.36;79.97;102131.78;5075181;28;20107;-77
2022/12/03 09:01:37;;;;;;;34.97;12.10;;;;;;;1.36;80.37;102126.63;5073916;28;20111;-77
2022/12/03 09:04:30;;;;;;;29.80;11.57;;;;;;;1.34;79.87;102126.59;5055165;28;20037;-77
2022/12/03 09:06:56;;;;;;;29.47;11.60;;;;;;;1.31;79.94;102118.81;5064787;28;20524;-76
2022/12/03 09:09:22;;;;;;;28.23;11.60;;;;;;;1.27;79.58;102123.78;5065907;28;20037;-77
2022/12/03 09:11:49;;;;;;;30.00;12.43;;;;;;;1.24;79.40;102124.53;5067857;28;20029;-77
2022/12/03 09:14:16;;;;;;;29.87;12.13;;;;;;;1.24;79.33;102123.69;5068079;28;20128;-76
2022/12/03 09:16:41;;;;;;;31.80;12.63;;;;;;;1.20;79.39;102118.44;5065997;28;20030;-77
2022/12/03 09:19:07;;;;;;;31.93;12.20;;;;;;;1.17;78.86;102126.03;5067574;28;20048;-77
2022/12/03 09:21:32;;;;;;;27.83;10.93;;;;;;;1.16;79.32;102125.97;5065962;28;20077;-77
2022/12/03 09:23:57;;;;;;;29.57;11.20;;;;;;;1.16;79.21;102119.16;5066293;28;20070;-77
2022/12/03 09:26:23;;;;;;;30.90;11.40;;;;;;;1.16;79.14;102118.28;5064618;28;20121;-77
2022/12/03 09:28:48;;;;;;;30.63;12.23;;;;;;;1.20;79.49;102127.81;5065395;28;20037;-76
2022/12/03 09:31:15;;;;;;;33.30;12.00;;;;;;;1.15;78.84;102125.09;5065313;28;20475;-76
2022/12/03 09:33:41;;;;;;;32.23;12.07;;;;;;;1.15;79.22;102121.69;5065813;28;20044;-76
2022/12/03 09:36:06;;;;;;;27.37;11.23;;;;;;;1.15;79.33;102121.69;5066148;28;20094;-76
2022/12/03 09:38:32;;;;;;;28.33;10.87;;;;;;;1.16;79.21;102124.28;5067908;28;20111;-76
2022/12/03 09:40:58;;;;;;;29.30;11.37;;;;;;;1.18;79.39;102132.03;5064765;28;20048;-77
2022/12/03 09:43:25;;;;;;;25.47;10.60;;;;;;;1.17;79.47;102120.91;5067447;28;20572;-77
2022/12/03 09:45:50;;;;;;;28.70;11.37;;;;;;;1.17;79.48;102118.34;5064641;28;20066;-77
2022/12/03 09:48:18;;;;;;;31.27;12.53;;;;;;;1.20;79.53;102117.56;5064570;28;20056;-76
2022/12/03 09:50:43;;;;;;;29.17;11.60;;;;;;;1.19;79.10;102113.28;5064895;28;20043;-78
2022/12/03 09:53:14;;;;;;;28.73;11.23;;;;;;;1.18;79.22;102104.69;5066497;28;20036;-77
2022/12/03 09:55:42;;;;;;;32.23;12.73;;;;;;;1.18;79.36;102109.81;5065436;28;20046;-77
2022/12/03 09:58:11;;;;;;;30.00;11.17;;;;;;;1.16;79.21;102097.78;5067273;28;20426;-77
2022/12/03 10:00:36;;;;;;;31.77;12.53;;;;;;;1.19;78.68;102103.03;5064531;28;20037;-76
2022/12/03 10:03:05;;;;;;;29.13;11.17;;;;;;;1.18;79.26;102101.28;5067596;28;20030;-76
2022/12/03 10:05:32;;;;;;;30.13;12.47;;;;;;;1.18;79.22;102103.84;5065180;28;20028;-77
2022/12/03 10:08:04;;;;;;;31.23;11.03;;;;;;;1.18;79.10;102101.28;5067022;28;20195;-75
2022/12/03 10:10:29;;;;;;;33.07;11.87;;;;;;;1.17;79.06;102105.50;5063781;28;20040;-76
2022/12/03 10:12:54;;;;;;;31.43;11.77;;;;;;;1.19;79.23;102095.34;5062440;28;20043;-76
2022/12/03 10:15:22;;;;;;;34.93;12.30;;;;;;;1.17;79.33;102094.41;5064779;28;20141;-76
2022/12/03 10:17:49;;;;;;;28.80;10.97;;;;;;;1.13;79.24;102088.28;5067026;28;20032;-77
2022/12/03 10:20:17;;;;;;;28.50;10.33;;;;;;;1.16;79.66;102090.09;5064918;28;20056;-76
2022/12/03 10:22:43;;;;;;;27.47;11.17;;;;;;;1.16;79.32;102087.53;5066648;28;20111;-75
2022/12/03 10:25:15;;;;;;;27.40;11.20;;;;;;;1.15;79.09;102080.66;5065809;28;20951;-76
2022/12/03 10:27:41;;;;;;;26.70;11.43;;;;;;;1.11;78.75;102079.66;5064457;28;20070;-75
2022/12/03 10:30:18;;;;;;;26.33;10.37;;;;;;;1.15;79.18;102080.66;5064614;28;20043;-77
2022/12/03 10:32:50;;;;;;;27.80;9.97;;;;;;;1.16;78.76;102077.28;5064527;28;20036;-76
2022/12/03 10:35:17;;;;;;;24.03;9.73;;;;;;;1.20;78.51;102071.41;5061621;28;20028;-75
2022/12/03 10:38:15;;;;;;;23.00;9.40;;;;;;;1.24;78.46;102069.84;5065840;28;20499;-77
2022/12/03 10:40:40;;;;;;;22.77;9.50;;;;;;;1.25;77.51;102069.88;5023686;28;20056;-77
2022/12/03 10:43:18;;;;;;;21.83;8.33;;;;;;;1.25;77.66;102059.63;5073832;28;20071;-77
2022/12/03 10:45:47;;;;;;;24.47;9.37;;;;;;;1.27;77.38;102060.56;5071946;28;20021;-77
2022/12/03 10:48:24;;;;;;;23.97;9.27;;;;;;;1.30;77.26;102049.50;5075423;28;20106;-77
2022/12/03 10:50:53;;;;;;;19.63;8.53;;;;;;;1.31;76.67;102052.16;5067906;28;20226;-77
2022/12/03 10:53:23;;;;;;;19.50;7.90;;;;;;;1.31;76.79;102046.13;5072725;28;20130;-77
2022/12/03 10:55:50;;;;;;;19.77;7.73;;;;;;;1.33;76.46;102044.50;5070293;28;20111;-77
2022/12/03 10:58:18;;;;;;;18.83;7.53;;;;;;;1.35;76.87;102043.75;5072916;28;20108;-77
2022/12/03 11:00:43;;;;;;;20.57;8.50;;;;;;;1.36;76.43;102039.47;5066407;28;20544;-77
2022/12/03 11:03:17;;;;;;;16.97;7.43;;;;;;;1.38;76.49;102037.81;5069139;28;20145;-77
2022/12/03 11:05:43;;;;;;;20.23;7.70;;;;;;;1.33;76.69;102031.66;5070352;28;20035;-77
2022/12/03 11:08:15;;;;;;;21.83;9.47;;;;;;;1.34;76.07;102036.88;5053292;28;20021;-77
2022/12/03 11:10:40;;;;;;;18.30;8.20;;;;;;;1.30;75.85;102035.03;5069931;28;20032;-77
2022/12/03 11:13:31;;;;;;;19.53;8.13;;;;;;;1.31;76.68;102036.75;5073153;28;20028;-77
2022/12/03 11:15:57;;;;;;;17.83;8.23;;;;;;;1.31;76.49;102031.63;5071428;28;20028;-77
2022/12/03 11:18:35;;;;;;;17.83;7.67;;;;;;;1.35;76.81;102023.22;5072812;28;20488;-77
2022/12/03 11:21:07;;;;;;;19.03;8.10;;;;;;;1.32;76.02;102023.13;5072386;28;20034;-77
2022/12/03 11:23:45;;;;;;;20.07;8.47;;;;;;;1.32;76.51;102020.56;5073061;28;20108;-77
2022/12/03 11:26:17;;;;;;;18.13;8.50;;;;;;;1.33;76.44;102024.88;5071432;28;20035;-77
2022/12/03 11:28:45;;;;;;;18.57;8.13;;;;;;;1.35;76.38;102020.66;5072891;28;20464;-77
2022/12/03 11:31:43;;;;;;;21.07;8.93;;;;;;;1.36;76.32;102012.16;5072271;28;20025;-77
2022/12/03 11:34:17;;;;;;;21.97;8.73;;;;;;;1.38;76.27;102007.06;5055310;28;20099;-77
2022/12/03 11:37:10;;;;;;;21.97;9.30;;;;;;;1.42;76.00;102008.00;5072546;28;20047;-77